Time;durP1;ratioP1;P1;durP2;ratioP2;P2;SDS_P1;SDS_P2;PMS_P1;PMS_P2;Temp;Humidity;BMP_temperature;BMP_pressure;BME280_temperature;BME280_humidity;BME280_pressure;Samples;Min_cycle;Max_cycle;Signal;HPM_P1;HPM_P2
2023/06/27 00:01:25;;;;;;;;;;;;;;;19.06;86.34;101930.72;5055673;28;20011;-70
2023/06/27 00:03:51;;;;;;;;;;;;;;;19.05;87.01;101929.09;5044073;28;20019;-69
2023/06/27 00:06:19;;;;;;;;;;;;;;;18.99;89.67;101932.41;5040515;28;20225;-70
2023/06/27 00:08:47;;;;;;;;;;;;;;;18.95;89.12;101925.81;5037112;28;20385;-69
2023/06/27 00:11:13;;;;;;;;;;;;;;;18.89;90.67;101929.97;5048317;28;19979;-68
2023/06/27 00:13:41;;;;;;;;;;;;;;;18.86;91.75;101932.19;5039063;28;19936;-70
2023/06/27 00:16:12;;;;;;;;;;;;;;;18.80;92.05;101930.19;5044803;28;19940;-70
2023/06/27 00:18:39;;;;;;;;;;;;;;;18.80;92.68;101931.03;5021615;28;19929;-69
2023/06/27 00:21:06;;;;;;;;;;;;;;;18.78;94.22;101930.34;5041686;28;19929;-72
2023/06/27 00:23:33;;;;;;;;;;;;;;;18.79;92.74;101937.31;5030768;28;20052;-68
2023/06/27 00:26:00;;;;;;;;;;;;;;;18.77;94.43;101936.66;5028638;28;19929;-70
2023/06/27 00:28:27;;;;;;;;;;;;;;;18.75;94.30;101933.34;5049310;28;20614;-69
2023/06/27 00:30:54;;;;;;;;;;;;;;;18.76;94.06;101935.03;5038648;28;19929;-70
2023/06/27 00:33:20;;;;;;;;;;;;;;;18.80;94.43;101932.84;5041343;28;19925;-69
2023/06/27 00:35:46;;;;;;;;;;;;;;;18.83;92.99;101933.34;5039989;28;20221;-70
2023/06/27 00:38:13;;;;;;;;;;;;;;;18.83;94.40;101933.34;5040051;28;19975;-70
2023/06/27 00:40:39;;;;;;;;;;;;;;;18.87;93.90;101933.81;5048663;28;19928;-71
2023/06/27 00:43:06;;;;;;;;;;;;;;;18.86;93.90;101935.66;5024692;28;19968;-70
2023/06/27 00:45:32;;;;;;;;;;;;;;;18.88;94.13;101927.53;5049514;28;19928;-69
2023/06/27 00:48:00;;;;;;;;;;;;;;;18.88;93.21;101927.53;5017270;28;19929;-70
2023/06/27 00:50:30;;;;;;;;;;;;;;;18.87;94.62;101925.84;5037211;28;19997;-69
2023/06/27 00:53:01;;;;;;;;;;;;;;;18.91;93.96;101925.31;5047160;28;19942;-70
2023/06/27 00:55:30;;;;;;;;;;;;;;;18.97;94.15;101926.44;5042538;28;19937;-69
2023/06/27 00:57:56;;;;;;;;;;;;;;;19.01;90.88;101926.94;5032681;28;19932;-69
2023/06/27 01:00:23;;;;;;;;;;;;;;;19.03;93.16;101930.25;5040668;28;19944;-70
2023/06/27 01:02:49;;;;;;;;;;;;;;;19.01;94.90;101929.59;5042540;28;19932;-71
2023/06/27 01:05:17;;;;;;;;;;;;;;;19.00;94.42;101926.13;5040739;28;19933;-70
2023/06/27 01:07:56;;;;;;;;;;;;;;;18.98;92.58;101925.47;5048499;28;19933;-70
2023/06/27 01:10:22;;;;;;;;;;;;;;;19.00;93.96;101920.78;5047049;28;19931;-70
2023/06/27 01:12:59;;;;;;;;;;;;;;;18.95;94.59;101923.13;5032320;28;20402;-70
2023/06/27 01:15:26;;;;;;;;;;;;;;;18.90;94.08;101917.53;5028173;28;20186;-69
2023/06/27 01:17:53;;;;;;;;;;;;;;;18.85;93.20;101911.91;5015861;28;20437;-69
2023/06/27 01:20:19;;;;;;;;;;;;;;;18.78;92.65;101909.91;5045305;28;19932;-69
2023/06/27 01:22:53;;;;;;;;;;;;;;;18.83;93.01;101914.72;5025766;28;19975;-70
2023/06/27 01:25:20;;;;;;;;;;;;;;;18.84;94.34;101918.25;5048355;28;20348;-70
2023/06/27 01:27:46;;;;;;;;;;;;;;;18.81;93.26;101919.41;5047773;28;19924;-69
2023/06/27 01:30:15;;;;;;;;;;;;;;;18.84;94.69;101920.91;5037674;28;19932;-69
2023/06/27 01:32:58;;;;;;;;;;;;;;;18.83;94.72;101905.94;5044709;28;20439;-70
2023/06/27 01:35:31;;;;;;;;;;;;;;;18.85;94.32;101907.41;5024365;28;20006;-69
2023/06/27 01:38:02;;;;;;;;;;;;;;;18.80;92.87;101907.13;5049513;28;19956;-71
2023/06/27 01:40:31;;;;;;;;;;;;;;;18.81;93.39;101906.09;5037752;28;19987;-71
2023/06/27 01:43:03;;;;;;;;;;;;;;;18.80;92.71;101904.47;5040046;28;20431;-69
2023/06/27 01:45:29;;;;;;;;;;;;;;;18.85;93.56;101912.72;5036218;28;19971;-70
2023/06/27 01:47:57;;;;;;;;;;;;;;;18.87;93.74;101909.91;5043228;28;19978;-69
2023/06/27 01:50:24;;;;;;;;;;;;;;;18.89;93.12;101913.22;5048880;28;20381;-70
2023/06/27 01:52:50;;;;;;;;;;;;;;;18.88;94.33;101906.25;5042869;28;20024;-69
2023/06/27 01:55:17;;;;;;;;;;;;;;;18.82;92.38;101910.44;5048078;28;19929;-70
2023/06/27 01:57:44;;;;;;;;;;;;;;;18.65;93.30;101911.47;5019439;28;19936;-71
2023/06/27 02:00:10;;;;;;;;;;;;;;;18.63;92.93;101903.69;5043544;28;19929;-69
2023/06/27 02:02:37;;;;;;;;;;;;;;;18.55;93.31;101895.75;5042362;28;19925;-70
2023/06/27 02:05:04;;;;;;;;;;;;;;;18.54;92.02;101902.03;5046289;28;19929;-70
2023/06/27 02:07:30;;;;;;;;;;;;;;;18.48;94.90;101900.09;5048964;28;20464;-70
2023/06/27 02:09:56;;;;;;;;;;;;;;;18.43;93.89;101903.28;5021794;28;20019;-68
2023/06/27 02:12:23;;;;;;;;;;;;;;;18.42;94.63;101903.44;5044526;28;19929;-70
2023/06/27 02:14:49;;;;;;;;;;;;;;;18.45;93.91;101903.94;5035248;28;19928;-69
2023/06/27 02:17:16;;;;;;;;;;;;;;;18.39;96.11;101899.31;5030757;28;19956;-70
2023/06/27 02:19:42;;;;;;;;;;;;;;;18.38;95.32;101898.47;5042190;28;19987;-69
2023/06/27 02:22:08;;;;;;;;;;;;;;;18.32;96.02;101891.19;5046221;28;19956;-71
2023/06/27 02:24:35;;;;;;;;;;;;;;;18.27;97.22;101898.00;5044582;28;20004;-69
2023/06/27 02:27:01;;;;;;;;;;;;;;;18.29;97.48;101896.03;5038424;28;19975;-70
2023/06/27 02:29:28;;;;;;;;;;;;;;;18.19;98.54;101896.22;5044437;28;19932;-70
2023/06/27 02:31:54;;;;;;;;;;;;;;;18.08;100.00;101888.59;5043489;28;20354;-69
2023/06/27 02:34:21;;;;;;;;;;;;;;;17.97;100.00;101887.13;5046454;28;19935;-71
2023/06/27 02:36:47;;;;;;;;;;;;;;;17.99;100.00;101895.75;5021566;28;20396;-71
2023/06/27 02:39:14;;;;;;;;;;;;;;;17.92;100.00;101885.00;5025042;28;20011;-77
2023/06/27 02:41:40;;;;;;;;;;;;;;;17.92;100.00;101887.66;5041476;28;19971;-75
2023/06/27 02:44:07;;;;;;;;;;;;;;;17.94;100.00;101884.81;5037727;28;19931;-78
2023/06/27 02:46:33;;;;;;;;;;;;;;;17.97;100.00;101887.13;5048410;28;20137;-76
2023/06/27 02:49:01;;;;;;;;;;;;;;;17.89;100.00;101887.97;5042124;28;19936;-77
2023/06/27 02:51:28;;;;;;;;;;;;;;;17.88;100.00;101885.50;5030924;28;19929;-77
2023/06/27 02:53:54;;;;;;;;;;;;;;;17.84;100.00;101892.13;5045684;28;19932;-73
2023/06/27 02:56:21;;;;;;;;;;;;;;;17.86;100.00;101885.66;5020205;28;20293;-74
2023/06/27 02:58:47;;;;;;;;;;;;;;;17.89;100.00;101887.97;5039153;28;19980;-77
2023/06/27 03:01:14;;;;;;;;;;;;;;;17.91;100.00;101885.16;5042805;28;19983;-77
2023/06/27 03:03:43;;;;;;;;;;;;;;;17.92;100.00;101884.16;5046833;28;20007;-78
2023/06/27 03:06:10;;;;;;;;;;;;;;;18.00;100.00;101891.28;5042819;28;19974;-77
2023/06/27 03:08:39;;;;;;;;;;;;;;;17.98;100.00;101891.44;5045161;28;19983;-78
2023/06/27 03:11:06;;;;;;;;;;;;;;;17.97;100.00;101901.25;5026351;28;19960;-77
2023/06/27 03:13:32;;;;;;;;;;;;;;;17.93;100.00;101902.56;5030192;28;19929;-77
2023/06/27 03:16:00;;;;;;;;;;;;;;;17.80;100.00;101902.25;5046867;28;19932;-75
2023/06/27 03:18:27;;;;;;;;;;;;;;;17.68;100.00;101899.09;5040419;28;19925;-73
2023/06/27 03:20:53;;;;;;;;;;;;;;;17.66;100.00;101898.44;5049643;28;19928;-77
2023/06/27 03:23:20;;;;;;;;;;;;;;;17.61;100.00;101900.75;5038217;28;19968;-77
2023/06/27 03:25:46;;;;;;;;;;;;;;;17.58;100.00;101901.91;5043750;28;19935;-77
2023/06/27 03:28:13;;;;;;;;;;;;;;;17.61;100.00;101898.09;5026264;28;19951;-77
2023/06/27 03:30:43;;;;;;;;;;;;;;;17.64;100.00;101903.09;5038308;28;19983;-73
2023/06/27 03:33:10;;;;;;;;;;;;;;;17.65;100.00;101902.06;5048626;28;19975;-78
2023/06/27 03:35:36;;;;;;;;;;;;;;;17.70;100.00;101901.56;5022177;28;19932;-76
2023/06/27 03:38:03;;;;;;;;;;;;;;;17.68;100.00;101909.72;5041876;28;20101;-77
2023/06/27 03:40:29;;;;;;;;;;;;;;;17.70;100.00;101910.38;5041216;28;19929;-78
2023/06/27 03:42:56;;;;;;;;;;;;;;;17.63;100.00;101904.06;5048975;28;19932;-73
2023/06/27 03:45:22;;;;;;;;;;;;;;;17.63;100.00;101904.06;5043420;28;20341;-76
2023/06/27 03:47:49;;;;;;;;;;;;;;;17.64;100.00;101904.88;5041585;28;20389;-75
2023/06/27 03:50:15;;;;;;;;;;;;;;;17.67;100.00;101905.38;5044896;28;19939;-76
2023/06/27 03:52:42;;;;;;;;;;;;;;;17.65;100.00;101909.22;5035910;28;19929;-77
2023/06/27 03:55:08;;;;;;;;;;;;;;;17.53;100.00;101900.75;5047924;28;20537;-77
2023/06/27 03:57:35;;;;;;;;;;;;;;;17.48;100.00;101909.19;5037890;28;19984;-77
2023/06/27 04:00:02;;;;;;;;;;;;;;;17.45;100.00;101900.75;5048319;28;19928;-78
2023/06/27 04:02:29;;;;;;;;;;;;;;;17.42;100.00;101903.72;5050386;28;20333;-75
2023/06/27 04:04:55;;;;;;;;;;;;;;;17.36;100.00;101900.72;5034391;28;20373;-77
2023/06/27 04:07:22;;;;;;;;;;;;;;;17.38;100.00;101909.34;5048173;28;20655;-76
2023/06/27 04:09:48;;;;;;;;;;;;;;;17.31;100.00;101902.25;5040474;28;19975;-77
2023/06/27 04:12:15;;;;;;;;;;;;;;;17.30;100.00;101901.41;5055403;28;19955;-78
2023/06/27 04:14:41;;;;;;;;;;;;;;;17.23;100.00;101911.03;5041088;28;19940;-75
2023/06/27 04:17:08;;;;;;;;;;;;;;;17.22;100.00;101905.88;5045999;28;19983;-77
2023/06/27 04:19:34;;;;;;;;;;;;;;;17.14;100.00;101906.69;5046468;28;19967;-73
2023/06/27 04:22:01;;;;;;;;;;;;;;;17.12;100.00;101909.50;5028552;28;19960;-76
2023/06/27 04:24:27;;;;;;;;;;;;;;;17.13;100.00;101907.66;5051184;28;19939;-75
2023/06/27 04:26:54;;;;;;;;;;;;;;;17.10;100.00;101898.22;5043880;28;19933;-77
2023/06/27 04:29:20;;;;;;;;;;;;;;;17.20;100.00;101898.06;5048962;28;20555;-77
2023/06/27 04:31:46;;;;;;;;;;;;;;;17.20;100.00;101904.19;5044636;28;20023;-74
2023/06/27 04:34:13;;;;;;;;;;;;;;;17.22;100.00;101904.03;5039989;28;19925;-75
2023/06/27 04:36:40;;;;;;;;;;;;;;;17.24;100.00;101898.59;5033760;28;19932;-77
2023/06/27 04:39:08;;;;;;;;;;;;;;;17.16;100.00;101897.56;5046053;28;20317;-77
2023/06/27 04:41:34;;;;;;;;;;;;;;;17.20;100.00;101906.84;5046993;28;19991;-77
2023/06/27 04:44:01;;;;;;;;;;;;;;;17.12;100.00;101908.69;5044453;28;19967;-76
2023/06/27 04:46:30;;;;;;;;;;;;;;;17.09;100.00;101901.88;5041050;28;20020;-77
2023/06/27 04:48:57;;;;;;;;;;;;;;;17.11;100.00;101899.03;5043083;28;19939;-77
2023/06/27 04:51:24;;;;;;;;;;;;;;;17.11;100.00;101899.91;5043769;28;19924;-77
2023/06/27 04:53:50;;;;;;;;;;;;;;;17.20;100.00;101903.38;5051343;28;19929;-77
2023/06/27 04:56:17;;;;;;;;;;;;;;;17.20;100.00;101913.97;5045524;28;20384;-76
2023/06/27 04:58:43;;;;;;;;;;;;;;;17.27;100.00;101912.34;5045935;28;19959;-77
2023/06/27 05:01:10;;;;;;;;;;;;;;;17.29;100.00;101910.34;5039530;28;19925;-77
2023/06/27 05:03:37;;;;;;;;;;;;;;;17.25;100.00;101909.03;5047064;28;19992;-77
2023/06/27 05:06:07;;;;;;;;;;;;;;;17.29;100.00;101915.66;5032172;28;20343;-77
2023/06/27 05:08:35;;;;;;;;;;;;;;;17.37;100.00;101918.31;5038921;28;19983;-77
2023/06/27 05:11:03;;;;;;;;;;;;;;;17.39;100.00;101918.97;5047176;28;19929;-76
2023/06/27 05:13:29;;;;;;;;;;;;;;;17.46;100.00;101919.13;5040578;28;19933;-72
2023/06/27 05:15:56;;;;;;;;;;;;;;;17.46;100.00;101915.66;5045299;28;20043;-78
2023/06/27 05:18:23;;;;;;;;;;;;;;;17.49;100.00;101918.00;5044143;28;19983;-77
2023/06/27 05:20:49;;;;;;;;;;;;;;;17.46;100.00;101910.34;5026910;28;19964;-76
2023/06/27 05:23:15;;;;;;;;;;;;;;;17.51;100.00;101916.84;5048700;28;19934;-77
2023/06/27 05:25:42;;;;;;;;;;;;;;;17.57;100.00;101918.00;5027502;28;19928;-77
2023/06/27 05:28:09;;;;;;;;;;;;;;;17.55;100.00;101917.34;5049536;28;19936;-78
2023/06/27 05:30:35;;;;;;;;;;;;;;;17.50;100.00;101909.03;5041759;28;19932;-78
2023/06/27 05:33:02;;;;;;;;;;;;;;;17.43;100.00;101916.00;5051018;28;19925;-79
2023/06/27 05:35:28;;;;;;;;;;;;;;;17.46;100.00;101920.97;5044207;28;19929;-78
2023/06/27 05:37:55;;;;;;;;;;;;;;;17.46;100.00;101916.50;5033111;28;19932;-78
2023/06/27 05:40:21;;;;;;;;;;;;;;;17.46;100.00;101913.00;5049493;28;20008;-78
2023/06/27 05:42:47;;;;;;;;;;;;;;;17.40;100.00;101917.16;5038924;28;19959;-77
2023/06/27 05:45:14;;;;;;;;;;;;;;;17.51;100.00;101921.31;5049614;28;19924;-77
2023/06/27 05:47:44;;;;;;;;;;;;;;;17.53;100.00;101919.31;5029343;28;19929;-78
2023/06/27 05:50:11;;;;;;;;;;;;;;;17.54;100.00;101915.66;5049698;28;20296;-79
2023/06/27 05:52:37;;;;;;;;;;;;;;;17.51;100.00;101924.78;5045882;28;19978;-78
2023/06/27 05:55:04;;;;;;;;;;;;;;;17.55;100.00;101923.47;5043767;28;19940;-76
2023/06/27 05:57:30;;;;;;;;;;;;;;;17.60;100.00;101920.31;5029288;28;19956;-79
2023/06/27 05:59:57;;;;;;;;;;;;;;;17.65;100.00;101920.66;5045385;28;19968;-77
2023/06/27 06:02:23;;;;;;;;;;;;;;;17.54;100.00;101923.63;5051329;28;19928;-79
2023/06/27 06:04:50;;;;;;;;;;;;;;;17.54;100.00;101923.63;5044134;28;20278;-77
2023/06/27 06:07:16;;;;;;;;;;;;;;;17.61;100.00;101916.66;5050931;28;20581;-78
2023/06/27 06:09:43;;;;;;;;;;;;;;;17.67;100.00;101917.84;5036189;28;19929;-75
2023/06/27 06:12:09;;;;;;;;;;;;;;;17.69;100.00;101923.81;5051519;28;19936;-75
2023/06/27 06:14:35;;;;;;;;;;;;;;;17.64;100.00;101918.16;5050771;28;19951;-77
2023/06/27 06:17:02;;;;;;;;;;;;;;;17.59;100.00;101923.97;5045212;28;19931;-74
2023/06/27 06:19:28;;;;;;;;;;;;;;;17.59;100.00;101923.97;5056239;28;19928;-79
2023/06/27 06:21:55;;;;;;;;;;;;;;;17.70;100.00;101923.63;5028991;28;20373;-79
2023/06/27 06:24:22;;;;;;;;;;;;;;;17.77;100.00;101927.25;5043998;28;20020;-78
2023/06/27 06:26:48;;;;;;;;;;;;;;;17.65;100.00;101935.75;5043348;28;19925;-76
2023/06/27 06:29:15;;;;;;;;;;;;;;;17.75;100.00;101931.09;5032928;28;19928;-77
2023/06/27 06:31:41;;;;;;;;;;;;;;;17.73;100.00;101933.09;5044812;28;19953;-77
2023/06/27 06:34:08;;;;;;;;;;;;;;;17.73;100.00;101933.09;5035970;28;19955;-77
2023/06/27 06:36:35;;;;;;;;;;;;;;;17.86;100.00;101935.28;5044787;28;19936;-76
2023/06/27 06:39:01;;;;;;;;;;;;;;;17.90;100.00;101937.41;5013376;28;19929;-78
2023/06/27 06:41:28;;;;;;;;;;;;;;;18.02;100.00;101931.78;5048764;28;19998;-75
2023/06/27 06:43:54;;;;;;;;;;;;;;;18.10;100.00;101937.88;5043505;28;19956;-79
2023/06/27 06:46:20;;;;;;;;;;;;;;;18.23;100.00;101940.03;5048034;28;19931;-78
2023/06/27 06:48:47;;;;;;;;;;;;;;;18.29;100.00;101949.16;5048112;28;19936;-75
2023/06/27 06:51:14;;;;;;;;;;;;;;;18.31;100.00;101953.28;5035816;28;19924;-75
2023/06/27 06:53:40;;;;;;;;;;;;;;;18.45;100.00;101954.41;5047168;28;19928;-77
2023/06/27 06:56:06;;;;;;;;;;;;;;;18.47;100.00;101962.22;5026896;28;20396;-78
2023/06/27 06:58:33;;;;;;;;;;;;;;;18.50;100.00;101956.53;5048946;28;20380;-76
2023/06/27 07:01:00;;;;;;;;;;;;;;;18.64;100.00;101960.31;5044556;28;19951;-78
2023/06/27 07:03:26;;;;;;;;;;;;;;;18.70;100.00;101956.94;5045633;28;20317;-79
2023/06/27 07:05:53;;;;;;;;;;;;;;;18.81;100.00;101959.25;5048102;28;20440;-78
2023/06/27 07:08:19;;;;;;;;;;;;;;;18.91;100.00;101959.06;5023481;28;19932;-78
2023/06/27 07:10:46;;;;;;;;;;;;;;;18.86;100.00;101956.94;5049887;28;19925;-76
2023/06/27 07:13:12;;;;;;;;;;;;;;;18.89;100.00;101950.44;5026602;28;19940;-79
2023/06/27 07:15:39;;;;;;;;;;;;;;;18.94;100.00;101948.09;5049721;28;19928;-79
2023/06/27 07:18:05;;;;;;;;;;;;;;;19.06;100.00;101951.19;5037910;28;19929;-80
2023/06/27 07:20:32;;;;;;;;;;;;;;;19.12;100.00;101948.63;5039794;28;19934;-80
2023/06/27 07:22:58;;;;;;;;;;;;;;;19.23;100.00;101939.44;5032332;28;19929;-77
2023/06/27 07:25:25;;;;;;;;;;;;;;;19.34;99.74;101947.00;5043534;28;19960;-77
2023/06/27 07:27:51;;;;;;;;;;;;;;;19.45;98.79;101942.28;5030649;28;19964;-78
2023/06/27 07:30:18;;;;;;;;;;;;;;;19.55;88.96;101948.19;5041952;28;20348;-80
2023/06/27 07:32:45;;;;;;;;;;;;;;;19.72;91.97;101948.91;5031331;28;20027;-78
2023/06/27 07:35:11;;;;;;;;;;;;;;;19.91;92.84;101943.06;5046489;28;19925;-78
2023/06/27 07:37:38;;;;;;;;;;;;;;;19.99;79.42;101944.81;5054206;28;20407;-79
2023/06/27 07:40:07;;;;;;;;;;;;;;;20.15;79.93;101949.19;5037576;28;19924;-80
2023/06/27 07:42:33;;;;;;;;;;;;;;;20.27;79.57;101944.22;5036027;28;19932;-79
2023/06/27 07:45:00;;;;;;;;;;;;;;;20.33;76.16;101941.66;5051655;28;19929;-79
2023/06/27 07:47:26;;;;;;;;;;;;;;;20.49;77.97;101943.28;5041925;28;19976;-79
2023/06/27 07:49:53;;;;;;;;;;;;;;;20.40;74.76;101946.25;5040668;28;19934;-78
2023/06/27 07:52:20;;;;;;;;;;;;;;;20.46;77.07;101935.66;5059285;28;19955;-73
2023/06/27 07:54:46;;;;;;;;;;;;;;;20.47;78.54;101936.50;5072895;28;20145;-74
2023/06/27 07:57:13;;;;;;;;;;;;;;;20.62;77.11;101932.03;5059691;28;19982;-80
2023/06/27 07:59:39;;;;;;;;;;;;;;;20.73;72.00;101936.03;5047072;28;19979;-80
2023/06/27 08:02:05;;;;;;;;;;;;;;;20.77;67.71;101931.16;5050669;28;19928;-80
2023/06/27 08:04:32;;;;;;;;;;;;;;;20.87;70.81;101937.84;5031050;28;19971;-80
2023/06/27 08:06:59;;;;;;;;;;;;;;;21.00;68.56;101937.16;5033573;28;19928;-80
2023/06/27 08:09:25;;;;;;;;;;;;;;;21.00;67.87;101937.16;5031092;28;20003;-79
2023/06/27 08:11:52;;;;;;;;;;;;;;;21.03;65.87;101934.13;5052263;28;19940;-81
2023/06/27 08:14:18;;;;;;;;;;;;;;;21.02;65.19;101935.13;5052403;28;19912;-80
2023/06/27 08:16:46;;;;;;;;;;;;;;;21.05;65.39;101923.25;5039331;28;19982;-79
2023/06/27 08:19:13;;;;;;;;;;;;;;;21.03;65.08;101936.81;5033460;28;20360;-78
2023/06/27 08:21:39;;;;;;;;;;;;;;;21.02;66.65;101929.81;5036024;28;20278;-77
2023/06/27 08:24:05;;;;;;;;;;;;;;;21.23;66.92;101929.00;5052903;28;20075;-81
2023/06/27 08:26:32;;;;;;;;;;;;;;;21.43;68.57;101920.34;5045655;28;19924;-74
2023/06/27 08:28:58;;;;;;;;;;;;;;;21.69;68.48;101925.13;5044678;28;19929;-79
2023/06/27 08:31:25;;;;;;;;;;;;;;;21.86;66.65;101926.47;5046723;28;20282;-80
2023/06/27 08:33:51;;;;;;;;;;;;;;;21.92;63.89;101920.34;5045753;28;20441;-80
2023/06/27 08:36:17;;;;;;;;;;;;;;;21.81;63.57;101930.75;5052694;28;19991;-82
2023/06/27 08:38:44;;;;;;;;;;;;;;;21.72;65.31;101927.41;5046061;28;19928;-77
2023/06/27 08:41:11;;;;;;;;;;;;;;;21.67;62.88;101924.50;5051807;28;19974;-81
2023/06/27 08:43:39;;;;;;;;;;;;;;;21.83;62.26;101918.84;5046389;28;20435;-75
2023/06/27 08:46:07;;;;;;;;;;;;;;;21.63;61.01;101921.38;5043330;28;20565;-81
2023/06/27 08:48:36;;;;;;;;;;;;;;;21.73;60.82;101921.84;5052164;28;19933;-81
2023/06/27 08:51:03;;;;;;;;;;;;;;;22.02;59.62;101916.53;5025948;28;19929;-81
2023/06/27 08:53:30;;;;;;;;;;;;;;;22.18;59.17;101916.19;5055168;28;19983;-81
2023/06/27 08:55:57;;;;;;;;;;;;;;;22.22;58.24;101913.97;5042988;28;20702;-75
2023/06/27 08:58:27;;;;;;;;;;;;;;;22.34;58.31;101917.75;5051354;28;19963;-79
2023/06/27 09:00:56;;;;;;;;;;;;;;;22.40;58.50;101913.47;5043907;28;19929;-79
2023/06/27 09:03:24;;;;;;;;;;;;;;;22.44;57.02;101906.69;5049622;28;20388;-81
2023/06/27 09:05:50;;;;;;;;;;;;;;;22.69;60.09;101915.03;5052755;28;19936;-78
2023/06/27 09:08:20;;;;;;;;;;;;;;;22.82;59.09;101909.72;5045234;28;20449;-78
2023/06/27 09:10:46;;;;;;;;;;;;;;;22.97;57.00;101900.69;5046444;28;19929;-77
2023/06/27 09:13:13;;;;;;;;;;;;;;;22.90;56.12;101901.50;5044902;28;19924;-79
2023/06/27 09:15:39;;;;;;;;;;;;;;;22.95;57.00;101911.59;5052380;28;19929;-76
2023/06/27 09:18:07;;;;;;;;;;;;;;;22.82;56.01;101914.25;5028010;28;19947;-76
2023/06/27 09:20:34;;;;;;;;;;;;;;;22.66;56.36;101915.44;5051697;28;19928;-78
2023/06/27 09:23:05;;;;;;;;;;;;;;;22.67;56.09;101917.06;5029249;28;19976;-79
2023/06/27 09:25:32;;;;;;;;;;;;;;;22.49;54.04;101917.63;5036401;28;20044;-79
2023/06/27 09:28:01;;;;;;;;;;;;;;;22.62;56.09;101917.69;5052009;28;19982;-77
2023/06/27 09:30:30;;;;;;;;;;;;;;;22.46;52.81;101916.19;5046404;28;20014;-79
2023/06/27 09:32:59;;;;;;;;;;;;;;;22.39;54.04;101915.31;5053144;28;20362;-78
2023/06/27 09:35:26;;;;;;;;;;;;;;;22.35;55.43;101913.25;5043435;28;19952;-78
2023/06/27 09:38:13;;;;;;;;;;;;;;;22.30;53.55;101913.81;5045573;28;19997;-80
2023/06/27 09:40:43;;;;;;;;;;;;;;;22.24;52.62;101911.91;5029404;28;19964;-79
2023/06/27 09:43:11;;;;;;;;;;;;;;;22.43;53.46;101911.22;5048632;28;20389;-75
2023/06/27 09:45:37;;;;;;;;;;;;;;;22.75;53.43;101908.06;5051852;28;19933;-77
2023/06/27 09:48:08;;;;;;;;;;;;;;;22.75;51.68;101908.88;5043948;28;19964;-75
2023/06/27 09:50:34;;;;;;;;;;;;;;;22.99;52.61;101910.19;5047248;28;19940;-79
2023/06/27 09:53:05;;;;;;;;;;;;;;;23.13;52.12;101920.94;5040465;28;19928;-78
2023/06/27 09:55:32;;;;;;;;;;;;;;;23.08;51.14;101919.69;5033696;28;19963;-78
2023/06/27 09:57:58;;;;;;;;;;;;;;;22.96;49.83;101913.25;5044724;28;19933;-78
2023/06/27 10:00:26;;;;;;;;;;;;;;;22.92;49.41;101914.69;5048582;28;19928;-69
2023/06/27 10:02:53;;;;;;;;;;;;;;;22.93;50.80;101910.97;5045450;28;19925;-69
2023/06/27 10:05:20;;;;;;;;;;;;;;;23.03;48.83;101921.31;5036275;28;19929;-72
2023/06/27 10:07:48;;;;;;;;;;;;;;;23.18;49.29;101926.50;5045592;28;19936;-69
2023/06/27 10:10:15;;;;;;;;;;;;;;;22.97;49.93;101912.22;5021929;28;19925;-70
2023/06/27 10:12:42;;;;;;;;;;;;;;;23.20;51.78;101917.25;5026345;28;19925;-71
2023/06/27 10:15:09;;;;;;;;;;;;;;;23.28;50.81;101909.00;5048240;28;19988;-70
2023/06/27 10:17:36;;;;;;;;;;;;;;;23.27;48.66;101923.44;5043914;28;19929;-70
2023/06/27 10:20:06;;;;;;;;;;;;;;;23.65;49.63;101925.50;5042039;28;19925;-71
2023/06/27 10:22:34;;;;;;;;;;;;;;;23.66;48.28;101910.28;5041936;28;20345;-68
2023/06/27 10:25:05;;;;;;;;;;;;;;;23.96;50.77;101920.56;5048848;28;20024;-69
2023/06/27 10:27:35;;;;;;;;;;;;;;;24.20;49.29;101909.16;5024419;28;20373;-69
2023/06/27 10:30:04;;;;;;;;;;;;;;;24.00;48.52;101913.75;5046332;28;19989;-71
2023/06/27 10:32:43;;;;;;;;;;;;;;;23.97;48.07;101908.81;5041124;28;20177;-69
2023/06/27 10:35:11;;;;;;;;;;;;;;;23.88;49.37;101910.88;5042495;28;19929;-69
2023/06/27 10:37:42;;;;;;;;;;;;;;;23.77;48.37;101930.22;5030908;28;20389;-69
2023/06/27 10:40:09;;;;;;;;;;;;;;;23.88;50.18;101919.75;5041054;28;19955;-71
2023/06/27 10:42:36;;;;;;;;;;;;;;;23.80;49.59;101919.97;5048450;28;19963;-70
2023/06/27 10:45:07;;;;;;;;;;;;;;;23.48;49.62;101914.41;5040169;28;20329;-69
2023/06/27 10:47:34;;;;;;;;;;;;;;;23.61;50.52;101918.91;5025685;28;19929;-69
2023/06/27 10:50:06;;;;;;;;;;;;;;;23.81;51.47;101923.47;5035097;28;20052;-69
2023/06/27 10:52:33;;;;;;;;;;;;;;;23.62;49.26;101927.75;5048683;28;20308;-69
2023/06/27 10:55:18;;;;;;;;;;;;;;;23.30;49.36;101925.69;5028376;28;19924;-69
2023/06/27 10:57:53;;;;;;;;;;;;;;;23.22;50.00;101925.88;5038306;28;20436;-70
2023/06/27 11:00:29;;;;;;;;;;;;;;;23.43;51.00;101918.72;5040971;28;20308;-70
2023/06/27 11:02:56;;;;;;;;;;;;;;;23.14;50.25;101922.59;5037211;28;20432;-71
2023/06/27 11:05:35;;;;;;;;;;;;;;;23.27;50.73;101930.66;5030926;28;20012;-69
2023/06/27 11:08:02;;;;;;;;;;;;;;;23.25;50.41;101919.31;5039800;28;20388;-69
2023/06/27 11:10:29;;;;;;;;;;;;;;;23.13;49.52;101924.44;5045936;28;19979;-69
2023/06/27 11:13:15;;;;;;;;;;;;;;;23.42;50.32;101941.16;5039879;28;19967;-71
2023/06/27 11:15:44;;;;;;;;;;;;;;;23.75;50.62;101929.63;5022020;28;19924;-68
2023/06/27 11:18:17;;;;;;;;;;;;;;;23.92;48.83;101932.72;5038850;28;19932;-72
2023/06/27 11:20:46;;;;;;;;;;;;;;;24.11;49.66;101936.38;5039052;28;20118;-69
2023/06/27 11:23:13;;;;;;;;;;;;;;;24.15;48.48;101932.25;5047856;28;19924;-68
2023/06/27 11:25:42;;;;;;;;;;;;;;;23.96;47.57;101929.41;5040160;28;19970;-68
2023/06/27 11:28:10;;;;;;;;;;;;;;;24.12;49.32;101928.16;5043724;28;19933;-69
2023/06/27 11:30:37;;;;;;;;;;;;;;;24.48;49.19;101929.47;5013677;28;19933;-68
2023/06/27 11:33:05;;;;;;;;;;;;;;;24.17;46.52;101914.94;5033506;28;19947;-69
2023/06/27 11:35:32;;;;;;;;;;;;;;;23.86;46.13;101926.34;5044191;28;19931;-69
2023/06/27 11:37:59;;;;;;;;;;;;;;;23.86;46.36;101939.75;5042477;28;19933;-70
2023/06/27 11:40:27;;;;;;;;;;;;;;;23.97;45.04;101936.44;5050396;28;19929;-70
2023/06/27 11:43:01;;;;;;;;;;;;;;;24.14;44.85;101928.75;5037139;28;19952;-69
2023/06/27 11:45:27;;;;;;;;;;;;;;;24.13;44.63;101926.28;5045992;28;20262;-71
2023/06/27 11:47:54;;;;;;;;;;;;;;;24.38;45.00;101935.28;5043972;28;20382;-69
2023/06/27 11:50:21;;;;;;;;;;;;;;;24.77;45.38;101930.81;5047675;28;19929;-70
2023/06/27 11:52:47;;;;;;;;;;;;;;;25.00;43.84;101929.47;5043389;28;19929;-70
2023/06/27 11:55:14;;;;;;;;;;;;;;;25.21;43.67;101931.81;5042199;28;19936;-69
2023/06/27 11:57:47;;;;;;;;;;;;;;;25.18;43.66;101934.09;5037038;28;19976;-70
2023/06/27 12:00:25;;;;;;;;;;;;;;;25.41;43.60;101920.94;5041209;28;20348;-69
2023/06/27 12:02:57;;;;;;;;;;;;;;;25.63;43.37;101916.00;5039764;28;19928;-70
2023/06/27 12:05:24;;;;;;;;;;;;;;;25.54;43.87;101924.56;5032539;28;19931;-69
2023/06/27 12:07:57;;;;;;;;;;;;;;;25.36;43.47;101928.00;5046146;28;19929;-70
2023/06/27 12:10:24;;;;;;;;;;;;;;;25.51;44.03;101922.31;5037207;28;19978;-70
2023/06/27 12:12:51;;;;;;;;;;;;;;;25.73;44.08;101920.06;5043454;28;20353;-75
2023/06/27 12:15:18;;;;;;;;;;;;;;;25.92;44.49;101920.94;5049706;28;20378;-80
2023/06/27 12:17:54;;;;;;;;;;;;;;;26.02;44.41;101927.44;5041476;28;19971;-80
2023/06/27 12:20:21;;;;;;;;;;;;;;;26.50;44.36;101917.81;5032094;28;19928;-74
2023/06/27 12:22:47;;;;;;;;;;;;;;;26.57;42.64;101901.56;5038328;28;19980;-76
2023/06/27 12:25:14;;;;;;;;;;;;;;;26.52;42.12;101909.50;5051700;28;20274;-76
2023/06/27 12:27:41;;;;;;;;;;;;;;;26.12;43.38;101896.53;5045663;28;19929;-78
2023/06/27 12:30:09;;;;;;;;;;;;;;;26.25;44.42;101904.47;5054786;28;19925;-79
2023/06/27 12:32:36;;;;;;;;;;;;;;;25.95;43.94;101902.53;5049432;28;20019;-77
2023/06/27 12:35:03;;;;;;;;;;;;;;;26.23;44.16;101896.59;5048064;28;20350;-80